Portage, Indiana
Current Conditions -  °F | °C
As of 10:56 AM on Friday 19 Dec 2014 (Local Time) from KVPZ Reporting Station
Overcast Overcast  
Wind Chill: 23°   Ceiling: 2500
Heat Index: 31°   Visibility: 10mi
Dew Point: 24°   Wind: 9mph
Humidity: 76%   Direction: 270°W
Pressure: 30.3"   Gusts: NA
Location:  41.6°N, 87.17°W
Report Text: KVPZ 191656Z AUTO 27008KT 10SM OVC025 M01/M04 A3030 RMK AO2 SLP270 T10061044 TSNO
Loading
Personal Weather Stations






























Interactive Weather Map New forecast layout! Learn more

10-Day Weather Forecast

Advertisements
Track Severe Weather on mobile